< Typhoon 195304 1953 Season Typhoon 195306 >
Typhoon 195305 (LOLA)
General InformationTrack Information on Google Maps || Disaster Info.ResourceGoogle EarthGE AnimationAtom FeedGeoJSON
Detalied Best Track (Time Zone = UTC)
Year Month Day Hour Lat. Long. Pressure (hPa) Wind (kt) Class Image Chart
1953 7 27 06 20.9 149.7 995 0 9 -- Chart
1953 7 27 12 21.2 149.3 995 0 9 -- Chart
1953 7 27 18 21.6 149.0 995 0 9 -- Chart
1953 7 28 00 22.1 148.6 990 0 9 -- Chart
1953 7 28 06 22.6 147.9 985 0 9 -- Chart
1953 7 28 12 23.1 147.7 980 0 9 -- Chart
1953 7 28 18 23.8 147.6 975 0 9 -- Chart
1953 7 29 00 24.4 147.3 970 0 9 -- Chart
1953 7 29 06 24.9 146.7 970 0 9 -- Chart
1953 7 29 12 25.5 146.0 970 0 9 -- Chart
1953 7 29 18 26.0 145.4 970 0 9 -- Chart
1953 7 30 00 26.5 144.9 970 0 9 -- Chart
1953 7 30 06 27.5 144.0 970 0 9 -- Chart
1953 7 30 12 28.0 143.1 975 0 9 -- Chart
1953 7 30 18 28.1 142.4 975 0 9 -- Chart
1953 7 31 00 28.4 141.6 975 0 9 -- Chart
1953 7 31 06 28.9 141.3 970 0 9 -- Chart
1953 7 31 12 29.8 141.1 970 0 9 -- Chart
1953 7 31 18 30.8 141.0 970 0 9 -- Chart
1953 8 1 00 31.4 141.0 970 0 9 -- Chart
1953 8 1 06 32.2 141.0 970 0 9 -- Chart
1953 8 1 12 33.6 141.6 980 0 9 -- Chart
1953 8 1 18 35.1 142.0 980 0 9 -- Chart
1953 8 2 00 35.8 142.6 980 0 9 -- Chart
1953 8 2 06 37.0 143.4 980 0 9 -- Chart
1953 8 2 12 38.2 144.0 980 0 9 -- Chart
1953 8 2 18 40.6 145.1 990 0 9 -- Chart
1953 8 3 00 43.0 148.3 995 0 9 -- Chart
Japan Meteorological Agency Best Track Data | Correction Date : 1990-10-17
< Typhoon 195304 1953 Season Typhoon 195306 >

Help